Gardner, Louisiana
Current Conditions -  °F | °C
As of 7:53 PM on Wednesday 22 Oct 2014 (Local Time) from KAEX Reporting Station
Clear Clear  
Wind Chill: 63°   Ceiling: Unl
Heat Index: 63°   Visibility: 10mi
Dew Point: 55°   Wind: 5mph
Humidity: 75%   Direction: 10°N
Pressure: 30.08"   Gusts: NA
Location:  31.27°N, 92.69°W
Report Text: KAEX 230053Z 01004KT 10SM CLR 17/13 A3008 RMK AO2 SLP188 T01720128
Loading
Personal Weather Stations






























Interactive Weather Map
Tropical Storm Tracking
New forecast layout! Learn more

10-Day Weather Forecast

Advertisements
Track Severe Weather on mobile